createdAt,value
2017-10-01T00:00:08.789Z,58.92
2017-10-01T00:01:08.823Z,58.92
2017-10-01T00:02:08.858Z,58.83
2017-10-01T00:03:08.901Z,59.69
2017-10-01T00:04:08.938Z,59.30
2017-10-01T00:05:08.971Z,59.49
2017-10-01T00:06:09.012Z,59.40
2017-10-01T00:07:09.053Z,59.49
2017-10-01T00:08:09.088Z,59.20
2017-10-01T00:09:09.128Z,59.01
2017-10-01T00:10:09.166Z,59.11
2017-10-01T00:11:09.207Z,59.30
2017-10-01T00:12:09.242Z,59.20
2017-10-01T00:13:09.277Z,59.20
2017-10-01T00:14:09.320Z,59.49
2017-10-01T00:15:09.358Z,59.49
2017-10-01T00:16:09.395Z,59.49
2017-10-01T00:17:09.437Z,60.35
2017-10-01T00:18:09.469Z,60.55
2017-10-01T00:19:09.507Z,60.06
2017-10-01T00:20:09.543Z,59.59
2017-10-01T00:21:09.586Z,59.97
2017-10-01T00:22:09.622Z,60.55
2017-10-01T00:23:09.664Z,60.26
2017-10-01T00:24:09.731Z,60.35
2017-10-01T00:25:09.738Z,60.23
2017-10-01T00:26:09.776Z,60.35
2017-10-01T00:27:09.812Z,59.88
2017-10-01T00:28:09.863Z,60.16
2017-10-01T00:29:09.895Z,60.64
2017-10-01T00:30:09.930Z,60.64
2017-10-01T00:31:09.966Z,60.35
2017-10-01T00:32:10.008Z,60.16
2017-10-01T00:33:10.042Z,60.35
2017-10-01T00:34:10.081Z,60.64
2017-10-01T00:35:10.119Z,60.64
2017-10-01T00:36:10.168Z,60.35
2017-10-01T00:37:10.250Z,60.55
2017-10-01T00:38:10.231Z,60.55
2017-10-01T00:39:10.272Z,60.06
2017-10-01T00:40:10.331Z,60.06
2017-10-01T00:41:10.347Z,60.06
2017-10-01T00:42:10.391Z,60.55
2017-10-01T00:43:10.427Z,60.64
2017-10-01T00:44:10.464Z,59.88
2017-10-01T00:45:10.505Z,60.16
2017-10-01T00:46:10.538Z,60.13
2017-10-01T00:47:10.579Z,60.64
2017-10-01T00:48:10.614Z,60.26
2017-10-01T00:49:10.656Z,60.23
2017-10-01T00:50:10.697Z,60.42
2017-10-01T00:51:10.733Z,60.23
2017-10-01T00:52:10.768Z,60.80
2017-10-01T00:53:10.805Z,60.45
2017-10-01T00:54:10.842Z,60.80
2017-10-01T00:55:10.883Z,60.33
2017-10-01T00:56:10.922Z,60.71
2017-10-01T00:57:10.963Z,60.80
2017-10-01T00:58:11.000Z,60.61
2017-10-01T00:59:11.033Z,60.61
2017-10-01T01:00:11.073Z,60.71
2017-10-01T01:01:11.113Z,61.47
2017-10-01T01:02:11.149Z,60.71
2017-10-01T01:03:11.191Z,60.80
2017-10-01T01:04:11.230Z,61.28
2017-10-01T01:05:11.267Z,62.33
2017-10-01T01:06:11.303Z,61.47
2017-10-01T01:07:11.343Z,61.47
2017-10-01T01:08:11.377Z,61.19
2017-10-01T01:09:11.421Z,61.28
2017-10-01T01:10:11.457Z,61.38
2017-10-01T01:11:11.493Z,61.85
2017-10-01T01:12:11.536Z,61.38
2017-10-01T01:13:11.566Z,60.80
2017-10-01T01:14:11.605Z,60.71
2017-10-01T01:15:11.647Z,60.52
2017-10-01T01:16:11.690Z,60.99
2017-10-01T01:17:11.724Z,61.28
2017-10-01T01:18:11.760Z,60.99
2017-10-01T01:19:11.801Z,61.38
2017-10-01T01:20:11.843Z,61.38
2017-10-01T01:21:11.875Z,62.14
2017-10-01T01:22:11.919Z,61.76
2017-10-01T01:23:11.956Z,61.66
2017-10-01T01:24:11.989Z,62.62
2017-10-01T01:25:12.029Z,62.33
2017-10-01T01:26:12.065Z,62.62
2017-10-01T01:27:12.110Z,62.52
2017-10-01T01:28:12.140Z,62.62
2017-10-01T01:29:12.180Z,62.81
2017-10-01T01:30:12.218Z,62.24
2017-10-01T01:31:12.288Z,62.62
2017-10-01T01:32:12.302Z,62.24
2017-10-01T01:33:12.336Z,62.43
2017-10-01T01:34:12.366Z,63.00
2017-10-01T01:35:12.403Z,63.10
2017-10-01T01:36:12.443Z,63.10
2017-10-01T01:37:12.484Z,63.96
2017-10-01T01:38:12.526Z,64.43
2017-10-01T01:39:12.558Z,64.34
2017-10-01T01:40:12.598Z,65.30
2017-10-01T01:41:12.634Z,66.35
2017-10-01T01:42:12.673Z,65.20
2017-10-01T01:43:12.708Z,65.39
2017-10-01T01:44:12.747Z,66.44
2017-10-01T01:45:12.786Z,67.02
2017-10-01T01:46:12.824Z,66.35
2017-10-01T01:47:12.864Z,66.83
2017-10-01T01:48:12.901Z,67.69
2017-10-01T01:49:12.935Z,66.54
2017-10-01T01:50:12.975Z,66.16
2017-10-01T01:51:13.015Z,65.87
2017-10-01T01:52:13.057Z,66.35
2017-10-01T01:53:13.094Z,66.35
2017-10-01T01:54:13.130Z,66.83
2017-10-01T01:55:13.170Z,66.35
2017-10-01T01:56:13.204Z,66.73
2017-10-01T01:57:13.241Z,67.02
2017-10-01T01:58:13.278Z,66.25
2017-10-01T01:59:13.319Z,66.73
2017-10-01T02:00:13.360Z,67.02
2017-10-01T02:01:13.391Z,67.11
2017-10-01T02:02:13.441Z,67.59
2017-10-01T02:03:13.468Z,67.69
2017-10-01T02:04:13.504Z,68.16
2017-10-01T02:05:13.542Z,67.88
2017-10-01T02:06:13.582Z,68.55
2017-10-01T02:07:13.624Z,68.35
2017-10-01T02:08:13.655Z,67.88
2017-10-01T02:09:13.701Z,67.75
2017-10-01T02:10:13.734Z,68.55
2017-10-01T02:11:13.770Z,68.93
2017-10-01T02:12:13.821Z,68.74
2017-10-01T02:13:13.848Z,68.84
2017-10-01T02:14:13.884Z,69.89
2017-10-01T02:15:13.924Z,69.70
2017-10-01T02:16:13.958Z,69.70
2017-10-01T02:17:14.001Z,70.42
2017-10-01T02:18:14.037Z,70.42
2017-10-01T02:19:14.078Z,70.61
2017-10-01T02:20:14.120Z,70.23
2017-10-01T02:21:14.159Z,69.27
2017-10-01T02:22:14.196Z,70.71
2017-10-01T02:23:14.224Z,70.52
2017-10-01T02:24:14.274Z,70.90
2017-10-01T02:25:14.305Z,70.90
2017-10-01T02:26:14.344Z,71.38
2017-10-01T02:27:14.379Z,71.38
2017-10-01T02:28:14.420Z,71.09
2017-10-01T02:29:14.451Z,70.90
2017-10-01T02:30:14.494Z,70.81
2017-10-01T02:31:14.538Z,71.00
2017-10-01T02:32:14.569Z,71.19
2017-10-01T02:33:14.605Z,71.38
2017-10-01T02:34:14.643Z,70.23
2017-10-01T02:35:14.679Z,70.23
2017-10-01T02:36:14.720Z,70.23
2017-10-01T02:37:14.755Z,69.66
2017-10-01T02:38:14.789Z,70.33
2017-10-01T02:39:14.834Z,70.52
2017-10-01T02:40:14.875Z,71.09
2017-10-01T02:41:14.910Z,70.90
2017-10-01T02:42:14.971Z,71.09
2017-10-01T02:43:14.984Z,71.28
2017-10-01T02:44:15.017Z,71.00
2017-10-01T02:45:15.059Z,70.71
2017-10-01T02:46:15.098Z,70.33
2017-10-01T02:47:15.132Z,70.33
2017-10-01T02:48:15.173Z,70.61
2017-10-01T02:49:15.216Z,70.61
2017-10-01T02:50:15.243Z,70.81
2017-10-01T02:51:15.284Z,70.90
2017-10-01T02:52:15.327Z,70.71
2017-10-01T02:53:15.358Z,70.81
2017-10-01T02:54:15.399Z,71.19
2017-10-01T02:55:15.437Z,70.90
2017-10-01T02:56:15.474Z,71.00
2017-10-01T02:57:15.509Z,71.00
2017-10-01T02:58:15.546Z,70.42
2017-10-01T02:59:15.585Z,69.95
2017-10-01T03:00:15.622Z,70.52
2017-10-01T03:01:15.663Z,70.14
2017-10-01T03:02:15.698Z,70.90
2017-10-01T03:03:15.740Z,70.77
2017-10-01T03:04:15.773Z,70.81
2017-10-01T03:05:15.811Z,70.04
2017-10-01T03:06:15.867Z,69.91
2017-10-01T03:07:15.888Z,69.27
2017-10-01T03:08:15.926Z,69.47
2017-10-01T03:09:15.971Z,68.76
2017-10-01T03:10:15.999Z,68.96
2017-10-01T03:11:16.037Z,69.24
2017-10-01T03:12:16.079Z,69.82
2017-10-01T03:13:16.110Z,70.01
2017-10-01T03:14:16.146Z,68.96
2017-10-01T03:15:16.190Z,68.96
2017-10-01T03:16:16.224Z,69.18
2017-10-01T03:17:16.270Z,69.05
2017-10-01T03:18:16.296Z,69.09
2017-10-01T03:19:16.335Z,68.41
2017-10-01T03:20:16.370Z,68.67
2017-10-01T03:21:16.411Z,67.71
2017-10-01T03:22:16.449Z,68.00
2017-10-01T03:23:16.487Z,67.43
2017-10-01T03:24:16.527Z,67.62
2017-10-01T03:25:16.560Z,68.13
2017-10-01T03:26:16.596Z,68.04
2017-10-01T03:27:16.643Z,67.71
2017-10-01T03:28:16.674Z,67.36
2017-10-01T03:29:16.720Z,68.00
2017-10-01T03:30:16.752Z,68.04
2017-10-01T03:31:16.784Z,67.18
2017-10-01T03:32:16.825Z,68.04
2017-10-01T03:33:16.890Z,67.84
2017-10-01T03:34:16.903Z,67.94
2017-10-01T03:35:16.935Z,68.70
2017-10-01T03:36:16.984Z,68.04
2017-10-01T03:37:17.010Z,67.75
2017-10-01T03:38:17.057Z,67.18
2017-10-01T03:39:17.089Z,68.13
2017-10-01T03:40:17.121Z,68.13
2017-10-01T03:41:17.160Z,68.23
2017-10-01T03:42:17.203Z,68.23
2017-10-01T03:43:17.237Z,68.13
2017-10-01T03:44:17.277Z,67.36
2017-10-01T03:45:17.312Z,68.13
2017-10-01T03:46:17.349Z,67.36
2017-10-01T03:47:17.387Z,68.04
2017-10-01T03:48:17.428Z,68.41
2017-10-01T03:49:17.462Z,68.99
2017-10-01T03:50:17.504Z,69.95
2017-10-01T03:51:17.540Z,70.23
2017-10-01T03:52:17.577Z,69.85
2017-10-01T03:53:17.610Z,69.66
2017-10-01T03:54:17.649Z,69.37
2017-10-01T03:55:17.698Z,68.80
2017-10-01T03:56:17.729Z,68.90
2017-10-01T03:57:17.763Z,69.66
2017-10-01T03:58:17.801Z,69.85
2017-10-01T03:59:17.836Z,70.14
2017-10-01T04:00:17.875Z,69.85
2017-10-01T04:01:17.911Z,69.85
2017-10-01T04:02:17.975Z,70.04
2017-10-01T04:03:17.989Z,70.04
2017-10-01T04:04:18.027Z,70.42
2017-10-01T04:05:18.076Z,70.90
2017-10-01T04:06:18.101Z,73.58
2017-10-01T04:07:18.136Z,76.54
2017-10-01T04:08:18.174Z,76.64
2017-10-01T04:09:18.214Z,76.64
2017-10-01T04:10:18.253Z,79.79
2017-10-01T04:11:18.295Z,82.65
2017-10-01T04:12:18.333Z,83.70
2017-10-01T04:13:18.363Z,85.48
2017-10-01T04:14:18.402Z,85.58
2017-10-01T04:15:18.437Z,85.96
2017-10-01T04:16:18.475Z,86.72
2017-10-01T04:17:18.514Z,87.68
2017-10-01T04:18:18.551Z,87.96
2017-10-01T04:19:18.592Z,88.34
2017-10-01T04:20:18.627Z,88.44
2017-10-01T04:21:18.662Z,88.06
2017-10-01T04:22:18.699Z,88.73
2017-10-01T04:23:18.736Z,88.92
2017-10-01T04:24:18.776Z,88.92
2017-10-01T04:25:18.814Z,89.49
2017-10-01T04:26:18.865Z,89.20
2017-10-01T04:27:18.888Z,89.49
2017-10-01T04:28:18.922Z,89.39
2017-10-01T04:29:18.962Z,89.30
2017-10-01T04:30:18.999Z,89.68
2017-10-01T04:31:19.047Z,89.68
2017-10-01T04:32:19.079Z,89.78
2017-10-01T04:33:19.118Z,89.97
2017-10-01T04:34:19.155Z,89.78
2017-10-01T04:35:19.185Z,90.06
2017-10-01T04:36:19.223Z,89.87
2017-10-01T04:37:19.265Z,90.50
2017-10-01T04:38:19.300Z,90.73
2017-10-01T04:39:19.335Z,90.83
2017-10-01T04:40:19.374Z,90.69
2017-10-01T04:41:19.410Z,90.78
2017-10-01T04:42:19.452Z,90.88
2017-10-01T04:43:19.482Z,91.26
2017-10-01T04:44:19.522Z,90.97
2017-10-01T04:45:19.562Z,90.88
2017-10-01T04:46:19.595Z,90.88
2017-10-01T04:47:19.634Z,91.36
2017-10-01T04:48:19.673Z,91.45
2017-10-01T04:49:19.707Z,90.69
2017-10-01T04:50:19.747Z,91.16
2017-10-01T04:51:19.781Z,90.78
2017-10-01T04:52:19.820Z,90.69
2017-10-01T04:53:19.858Z,90.97
2017-10-01T04:54:19.895Z,91.55
2017-10-01T04:55:19.934Z,91.93
2017-10-01T04:56:19.970Z,91.64
2017-10-01T04:57:20.009Z,92.50
2017-10-01T04:58:20.044Z,92.21
2017-10-01T04:59:20.080Z,92.02
2017-10-01T05:00:20.120Z,92.88
2017-10-01T05:01:20.158Z,92.88
2017-10-01T05:02:20.191Z,92.69
2017-10-01T05:03:20.225Z,92.50
2017-10-01T05:04:20.262Z,92.69
2017-10-01T05:05:20.303Z,92.88
2017-10-01T05:06:20.338Z,92.88
2017-10-01T05:07:20.374Z,92.60
2017-10-01T05:08:20.417Z,92.60
2017-10-01T05:09:20.450Z,93.07
2017-10-01T05:10:20.482Z,91.93
2017-10-01T05:11:20.519Z,92.31
2017-10-01T05:12:20.561Z,92.79
2017-10-01T05:13:20.595Z,92.41
2017-10-01T05:14:20.630Z,92.07
2017-10-01T05:15:20.669Z,91.02
2017-10-01T05:16:20.705Z,91.55
2017-10-01T05:17:20.746Z,92.07
2017-10-01T05:18:20.779Z,92.74
2017-10-01T05:19:20.816Z,92.36
2017-10-01T05:20:20.859Z,92.17
2017-10-01T05:21:20.891Z,92.83
2017-10-01T05:22:20.925Z,92.83
2017-10-01T05:23:20.962Z,92.55
2017-10-01T05:24:20.998Z,92.36
2017-10-01T05:25:21.034Z,92.46
2017-10-01T05:26:21.075Z,92.46
2017-10-01T05:27:21.113Z,92.83
2017-10-01T05:28:21.152Z,93.12
2017-10-01T05:29:21.185Z,93.41
2017-10-01T05:30:21.224Z,93.51
2017-10-01T05:31:21.255Z,92.93
2017-10-01T05:32:21.292Z,92.93
2017-10-01T05:33:21.328Z,93.31
2017-10-01T05:34:21.371Z,93.41
2017-10-01T05:35:21.405Z,93.31
2017-10-01T05:36:21.445Z,94.36
2017-10-01T05:37:21.475Z,94.07
2017-10-01T05:38:21.509Z,93.88
2017-10-01T05:39:21.547Z,93.70
2017-10-01T05:40:21.587Z,93.70
2017-10-01T05:41:21.626Z,93.98
2017-10-01T05:42:21.664Z,93.98
2017-10-01T05:43:21.706Z,94.36
2017-10-01T05:44:21.729Z,94.46
2017-10-01T05:45:21.772Z,93.88
2017-10-01T05:46:21.813Z,94.36
2017-10-01T05:47:21.843Z,93.88
2017-10-01T05:48:21.885Z,93.98
2017-10-01T05:49:21.916Z,93.79
2017-10-01T05:50:21.950Z,93.88
2017-10-01T05:51:21.987Z,93.88
2017-10-01T05:52:22.024Z,94.07
2017-10-01T05:53:22.061Z,94.27
2017-10-01T05:54:22.104Z,94.07
2017-10-01T05:55:22.134Z,94.74
2017-10-01T05:56:22.171Z,95.12
2017-10-01T05:57:22.209Z,94.93
2017-10-01T05:58:22.244Z,94.93
2017-10-01T05:59:22.283Z,94.65
2017-10-01T06:00:22.317Z,94.84
2017-10-01T06:01:22.356Z,94.36
2017-10-01T06:02:22.390Z,93.79
2017-10-01T06:03:22.429Z,94.74
2017-10-01T06:04:22.464Z,94.46
2017-10-01T06:05:22.497Z,95.12
2017-10-01T06:06:22.543Z,94.65
2017-10-01T06:07:22.575Z,94.74
2017-10-01T06:08:22.610Z,94.74
2017-10-01T06:09:22.650Z,95.03
2017-10-01T06:10:22.688Z,95.41
2017-10-01T06:11:22.721Z,95.12
2017-10-01T06:12:22.754Z,94.93
2017-10-01T06:13:22.790Z,94.93
2017-10-01T06:14:22.828Z,94.46
2017-10-01T06:15:22.866Z,93.41
2017-10-01T06:16:22.907Z,93.70
2017-10-01T06:17:22.942Z,93.12
2017-10-01T06:18:22.980Z,93.12
2017-10-01T06:19:23.008Z,93.98
2017-10-01T06:20:23.047Z,94.36
2017-10-01T06:21:23.085Z,93.98
2017-10-01T06:22:23.122Z,94.17
2017-10-01T06:23:23.157Z,93.98
2017-10-01T06:24:23.198Z,94.17
2017-10-01T06:25:23.242Z,94.17
2017-10-01T06:26:23.268Z,94.07
2017-10-01T06:27:23.313Z,93.98
2017-10-01T06:28:23.345Z,94.07
2017-10-01T06:29:23.379Z,93.88
2017-10-01T06:30:23.414Z,94.07
2017-10-01T06:31:23.448Z,93.98
2017-10-01T06:32:23.495Z,94.74
2017-10-01T06:33:23.546Z,94.03
2017-10-01T06:34:23.560Z,93.12
2017-10-01T06:35:23.594Z,93.41
2017-10-01T06:36:23.634Z,93.98
2017-10-01T06:37:23.668Z,94.17
2017-10-01T06:38:23.710Z,93.98
2017-10-01T06:39:23.748Z,93.98
2017-10-01T06:40:23.782Z,94.36
2017-10-01T06:41:23.819Z,94.07
2017-10-01T06:42:23.863Z,93.70
2017-10-01T06:43:23.892Z,93.02
2017-10-01T06:44:23.928Z,93.60
2017-10-01T06:45:23.967Z,93.41
2017-10-01T06:46:24.019Z,93.88
2017-10-01T06:47:24.034Z,94.27
2017-10-01T06:48:24.069Z,93.79
2017-10-01T06:49:24.107Z,94.17
2017-10-01T06:50:24.144Z,94.74
2017-10-01T06:51:24.191Z,94.74
2017-10-01T06:52:24.218Z,93.79
2017-10-01T06:53:24.260Z,94.17
2017-10-01T06:54:24.292Z,93.60
2017-10-01T06:55:24.329Z,93.79
2017-10-01T06:56:24.366Z,93.98
2017-10-01T06:57:24.405Z,92.83
2017-10-01T06:58:24.444Z,93.60
2017-10-01T06:59:24.477Z,93.60
2017-10-01T07:00:24.514Z,93.51
2017-10-01T07:01:24.546Z,93.41
2017-10-01T07:02:24.581Z,93.79
2017-10-01T07:03:24.626Z,93.79
2017-10-01T07:04:24.660Z,93.98
2017-10-01T07:05:24.694Z,94.27
2017-10-01T07:06:24.734Z,94.46
2017-10-01T07:07:24.770Z,93.70
2017-10-01T07:08:24.806Z,93.88
2017-10-01T07:09:24.843Z,94.70
2017-10-01T07:10:24.878Z,94.22
2017-10-01T07:11:24.913Z,93.93
2017-10-01T07:12:24.953Z,93.98
2017-10-01T07:13:24.991Z,93.17
2017-10-01T07:14:25.027Z,93.17
2017-10-01T07:15:25.060Z,92.12
2017-10-01T07:16:25.102Z,92.60
2017-10-01T07:17:25.137Z,92.69
2017-10-01T07:18:25.172Z,92.79
2017-10-01T07:19:25.237Z,93.07
2017-10-01T07:20:25.264Z,92.07
2017-10-01T07:21:25.287Z,91.88
2017-10-01T07:22:25.316Z,92.02
2017-10-01T07:23:25.358Z,92.41
2017-10-01T07:24:25.439Z,92.69
2017-10-01T07:25:25.442Z,92.69
2017-10-01T07:26:25.490Z,94.22
2017-10-01T07:27:25.503Z,93.36
2017-10-01T07:28:25.545Z,92.88
2017-10-01T07:29:25.575Z,92.69
2017-10-01T07:30:25.612Z,92.88
2017-10-01T07:31:25.649Z,92.50
2017-10-01T07:32:25.693Z,93.17
2017-10-01T07:33:25.728Z,91.55
2017-10-01T07:34:25.760Z,92.69
2017-10-01T07:35:25.799Z,92.02
2017-10-01T07:36:25.835Z,92.50
2017-10-01T07:37:25.874Z,92.69
2017-10-01T07:38:25.907Z,92.60
2017-10-01T07:39:25.944Z,93.17
2017-10-01T07:40:25.986Z,92.97
2017-10-01T07:41:26.021Z,92.69
2017-10-01T07:42:26.059Z,93.17
2017-10-01T07:43:26.090Z,93.46
2017-10-01T07:44:26.137Z,93.93
2017-10-01T07:45:26.175Z,94.03
2017-10-01T07:46:26.199Z,93.36
2017-10-01T07:47:26.242Z,93.17
2017-10-01T07:48:26.277Z,93.65
2017-10-01T07:49:26.311Z,93.74
2017-10-01T07:50:26.347Z,93.84
2017-10-01T07:51:26.399Z,93.65
2017-10-01T07:52:26.429Z,93.07
2017-10-01T07:53:26.459Z,92.69
2017-10-01T07:54:26.498Z,92.50
2017-10-01T07:55:26.539Z,92.79
2017-10-01T07:56:26.575Z,91.74
2017-10-01T07:57:26.606Z,92.50
2017-10-01T07:58:26.644Z,92.12
2017-10-01T07:59:26.686Z,91.55
2017-10-01T08:00:26.720Z,91.98
2017-10-01T08:01:26.760Z,92.46
2017-10-01T08:02:26.796Z,92.55
2017-10-01T08:03:26.832Z,92.83
2017-10-01T08:04:26.868Z,92.46
2017-10-01T08:05:26.902Z,92.02
2017-10-01T08:06:26.941Z,92.21
2017-10-01T08:07:26.975Z,92.02
2017-10-01T08:08:27.013Z,92.50
2017-10-01T08:09:27.049Z,93.17
2017-10-01T08:10:27.087Z,93.65
2017-10-01T08:11:27.123Z,94.31
2017-10-01T08:12:27.162Z,93.65
2017-10-01T08:13:27.202Z,93.07
2017-10-01T08:14:27.235Z,93.07
2017-10-01T08:15:27.274Z,92.31
2017-10-01T08:16:27.309Z,90.97
2017-10-01T08:17:27.341Z,91.74
2017-10-01T08:18:27.379Z,92.12
2017-10-01T08:19:27.419Z,92.31
2017-10-01T08:20:27.453Z,92.31
2017-10-01T08:21:27.491Z,92.41
2017-10-01T08:22:27.528Z,93.07
2017-10-01T08:23:27.565Z,92.12
2017-10-01T08:24:27.609Z,92.31
2017-10-01T08:25:27.638Z,91.45
2017-10-01T08:26:27.680Z,91.45
2017-10-01T08:27:27.713Z,90.97
2017-10-01T08:28:27.753Z,90.78
2017-10-01T08:29:27.807Z,90.88
2017-10-01T08:30:27.826Z,92.02
2017-10-01T08:31:27.868Z,90.83
2017-10-01T08:32:27.897Z,91.12
2017-10-01T08:33:27.933Z,91.64
2017-10-01T08:34:27.971Z,92.36
2017-10-01T08:35:28.015Z,91.69
2017-10-01T08:36:28.047Z,92.07
2017-10-01T08:37:28.080Z,91.60
2017-10-01T08:38:28.118Z,91.60
2017-10-01T08:39:28.155Z,91.88
2017-10-01T08:40:28.198Z,92.26
2017-10-01T08:41:28.231Z,92.65
2017-10-01T08:42:28.265Z,93.02
2017-10-01T08:43:28.305Z,93.60
2017-10-01T08:44:28.344Z,94.17
2017-10-01T08:45:28.375Z,93.22
2017-10-01T08:46:28.415Z,91.31
2017-10-01T08:47:28.450Z,91.50
2017-10-01T08:48:28.488Z,92.74
2017-10-01T08:49:28.523Z,92.93
2017-10-01T08:50:28.559Z,92.65
2017-10-01T08:51:28.598Z,92.55
2017-10-01T08:52:28.633Z,92.55
2017-10-01T08:53:28.672Z,92.55
2017-10-01T08:54:28.706Z,93.31
2017-10-01T08:55:28.763Z,94.07
2017-10-01T08:56:28.782Z,93.41
2017-10-01T08:57:28.824Z,92.55
2017-10-01T08:58:28.856Z,91.69
2017-10-01T08:59:28.891Z,91.60
2017-10-01T09:00:28.929Z,90.73
2017-10-01T09:01:28.966Z,90.83
2017-10-01T09:02:28.999Z,91.12
2017-10-01T09:03:29.041Z,91.50
2017-10-01T09:04:29.079Z,91.98
2017-10-01T09:05:29.120Z,92.46
2017-10-01T09:06:29.151Z,92.74
2017-10-01T09:07:29.186Z,93.12
2017-10-01T09:08:29.225Z,93.31
2017-10-01T09:09:29.258Z,92.65
2017-10-01T09:10:29.295Z,91.69
2017-10-01T09:11:29.336Z,92.88
2017-10-01T09:12:29.373Z,92.79
2017-10-01T09:13:29.405Z,92.69
2017-10-01T09:14:29.446Z,92.60
2017-10-01T09:15:29.481Z,92.60
2017-10-01T09:16:29.518Z,92.69
2017-10-01T09:17:29.555Z,91.26
2017-10-01T09:18:29.592Z,91.26
2017-10-01T09:19:29.631Z,91.26
2017-10-01T09:20:29.665Z,90.88
2017-10-01T09:21:29.700Z,90.93
2017-10-01T09:22:29.740Z,91.07
2017-10-01T09:23:29.773Z,90.83
2017-10-01T09:24:29.815Z,90.93
2017-10-01T09:25:29.852Z,90.97
2017-10-01T09:26:29.884Z,91.69
2017-10-01T09:27:29.928Z,92.36
2017-10-01T09:28:29.961Z,92.26
2017-10-01T09:29:29.998Z,91.98
2017-10-01T09:30:30.037Z,93.02
2017-10-01T09:31:30.072Z,92.36
2017-10-01T09:32:30.106Z,93.70
2017-10-01T09:33:30.145Z,93.60
2017-10-01T09:34:30.180Z,93.12
2017-10-01T09:35:30.216Z,93.51
2017-10-01T09:36:30.259Z,92.46
2017-10-01T09:37:30.291Z,93.02
2017-10-01T09:38:30.328Z,92.46
2017-10-01T09:39:30.365Z,92.17
2017-10-01T09:40:30.403Z,92.17
2017-10-01T09:41:30.440Z,92.46
2017-10-01T09:42:30.481Z,92.83
2017-10-01T09:43:30.511Z,92.46
2017-10-01T09:44:30.549Z,92.46
2017-10-01T09:45:30.586Z,92.74
2017-10-01T09:46:30.623Z,92.83
2017-10-01T09:47:30.660Z,91.69
2017-10-01T09:48:30.696Z,91.69
2017-10-01T09:49:30.735Z,91.69
2017-10-01T09:50:30.783Z,91.21
2017-10-01T09:51:30.804Z,91.60
2017-10-01T09:52:30.847Z,91.50
2017-10-01T09:53:30.878Z,91.69
2017-10-01T09:54:30.916Z,91.41
2017-10-01T09:55:30.951Z,92.93
2017-10-01T09:56:30.988Z,92.74
2017-10-01T09:57:31.025Z,90.83
2017-10-01T09:58:31.059Z,91.60
2017-10-01T09:59:31.127Z,91.50
2017-10-01T10:00:31.135Z,91.50
2017-10-01T10:01:31.174Z,91.02
2017-10-01T10:02:31.208Z,90.83
2017-10-01T10:03:31.246Z,91.78
2017-10-01T10:04:31.287Z,90.93
2017-10-01T10:05:31.318Z,91.21
2017-10-01T10:06:31.353Z,91.60
2017-10-01T10:07:31.394Z,91.50
2017-10-01T10:08:31.434Z,91.60
2017-10-01T10:09:31.470Z,91.31
2017-10-01T10:10:31.500Z,90.83
2017-10-01T10:11:31.539Z,90.64
2017-10-01T10:12:31.572Z,90.78
2017-10-01T10:13:31.615Z,91.55
2017-10-01T10:14:31.661Z,90.97
2017-10-01T10:15:31.685Z,89.83
2017-10-01T10:16:31.724Z,89.83
2017-10-01T10:17:31.758Z,89.73
2017-10-01T10:18:31.792Z,90.02
2017-10-01T10:19:31.829Z,89.45
2017-10-01T10:20:31.872Z,89.92
2017-10-01T10:21:31.910Z,89.83
2017-10-01T10:22:31.949Z,89.64
2017-10-01T10:23:31.980Z,89.73
2017-10-01T10:24:32.019Z,90.11
2017-10-01T10:25:32.054Z,90.40
2017-10-01T10:26:32.091Z,89.92
2017-10-01T10:27:32.127Z,90.31
2017-10-01T10:28:32.166Z,89.92
2017-10-01T10:29:32.206Z,90.54
2017-10-01T10:30:32.240Z,89.59
2017-10-01T10:31:32.275Z,89.01
2017-10-01T10:32:32.317Z,86.82
2017-10-01T10:33:32.351Z,87.29
2017-10-01T10:34:32.387Z,87.96
2017-10-01T10:35:32.429Z,88.44
2017-10-01T10:36:32.464Z,89.39
2017-10-01T10:37:32.503Z,88.92
2017-10-01T10:38:32.537Z,89.11
2017-10-01T10:39:32.575Z,89.01
2017-10-01T10:40:32.614Z,88.92
2017-10-01T10:41:32.649Z,88.34
2017-10-01T10:42:32.684Z,89.30
2017-10-01T10:43:32.724Z,89.11
2017-10-01T10:44:32.762Z,88.82
2017-10-01T10:45:32.803Z,89.01
2017-10-01T10:46:32.842Z,89.11
2017-10-01T10:47:32.877Z,88.92
2017-10-01T10:48:32.911Z,89.01
2017-10-01T10:49:32.947Z,88.15
2017-10-01T10:50:32.987Z,88.34
2017-10-01T10:51:33.024Z,88.82
2017-10-01T10:52:33.060Z,88.54
2017-10-01T10:53:33.099Z,87.68
2017-10-01T10:54:33.203Z,86.43
2017-10-01T10:55:33.178Z,87.10
2017-10-01T10:56:33.212Z,87.54
2017-10-01T10:57:33.247Z,87.68
2017-10-01T10:58:33.281Z,88.25
2017-10-01T10:59:33.320Z,88.97
2017-10-01T11:00:33.360Z,88.44
2017-10-01T11:01:33.396Z,88.54
2017-10-01T11:02:33.433Z,88.01
2017-10-01T11:03:33.472Z,88.63
2017-10-01T11:04:33.508Z,88.54
2017-10-01T11:05:33.544Z,87.01
2017-10-01T11:06:33.583Z,87.20
2017-10-01T11:07:33.620Z,86.82
2017-10-01T11:08:33.658Z,86.72
2017-10-01T11:09:33.702Z,86.24
2017-10-01T11:10:33.734Z,86.24
2017-10-01T11:11:33.771Z,86.05
2017-10-01T11:12:33.804Z,87.01
2017-10-01T11:13:33.846Z,86.91
2017-10-01T11:14:33.882Z,86.82
2017-10-01T11:15:33.922Z,86.82
2017-10-01T11:16:33.958Z,87.58
2017-10-01T11:17:33.996Z,87.87
2017-10-01T11:18:34.032Z,86.63
2017-10-01T11:19:34.072Z,87.39
2017-10-01T11:20:34.106Z,87.29
2017-10-01T11:21:34.145Z,87.39
2017-10-01T11:22:34.183Z,87.58
2017-10-01T11:23:34.223Z,87.96
2017-10-01T11:24:34.259Z,88.06
2017-10-01T11:25:34.297Z,87.20
2017-10-01T11:26:34.331Z,87.20
2017-10-01T11:27:34.377Z,87.29
2017-10-01T11:28:34.411Z,87.58
2017-10-01T11:29:34.452Z,87.87
2017-10-01T11:30:34.479Z,87.68
2017-10-01T11:31:34.540Z,86.53
2017-10-01T11:32:34.560Z,86.63
2017-10-01T11:33:34.599Z,86.15
2017-10-01T11:34:34.629Z,86.24
2017-10-01T11:35:34.667Z,85.42
2017-10-01T11:36:34.712Z,85.90
2017-10-01T11:37:34.772Z,84.56
2017-10-01T11:38:34.784Z,85.42
2017-10-01T11:39:34.816Z,86.67
2017-10-01T11:40:34.856Z,84.66
2017-10-01T11:41:34.906Z,83.80
2017-10-01T11:42:34.931Z,83.61
2017-10-01T11:43:34.974Z,84.09
2017-10-01T11:44:35.006Z,84.09
2017-10-01T11:45:35.042Z,84.85
2017-10-01T11:46:35.085Z,84.66
2017-10-01T11:47:35.136Z,85.42
2017-10-01T11:48:35.159Z,86.38
2017-10-01T11:49:35.201Z,84.19
2017-10-01T11:50:35.236Z,83.33
2017-10-01T11:51:35.270Z,83.04
2017-10-01T11:52:35.316Z,84.09
2017-10-01T11:53:35.346Z,85.42
2017-10-01T11:54:35.382Z,86.00
2017-10-01T11:55:35.425Z,85.71
2017-10-01T11:56:35.462Z,84.76
2017-10-01T11:57:35.503Z,86.57
2017-10-01T11:58:35.540Z,85.05
2017-10-01T11:59:35.572Z,84.38
2017-10-01T12:00:35.619Z,84.38
2017-10-01T12:01:35.652Z,83.47
2017-10-01T12:02:35.686Z,83.67
2017-10-01T12:03:35.752Z,84.91
2017-10-01T12:04:35.766Z,85.14
2017-10-01T12:05:35.807Z,85.05
2017-10-01T12:06:35.838Z,85.05
2017-10-01T12:07:35.908Z,84.09
2017-10-01T12:08:35.921Z,83.90
2017-10-01T12:09:35.956Z,84.38
2017-10-01T12:10:35.999Z,84.09
2017-10-01T12:11:36.029Z,83.13
2017-10-01T12:12:36.072Z,82.70
2017-10-01T12:13:36.106Z,82.60
2017-10-01T12:14:36.149Z,83.08
2017-10-01T12:15:36.180Z,83.17
2017-10-01T12:16:36.220Z,82.12
2017-10-01T12:17:36.265Z,82.03
2017-10-01T12:18:36.297Z,81.65
2017-10-01T12:19:36.331Z,81.16
2017-10-01T12:20:36.371Z,81.84
2017-10-01T12:21:36.411Z,82.41
2017-10-01T12:22:36.450Z,82.51
2017-10-01T12:23:36.485Z,82.51
2017-10-01T12:24:36.522Z,82.07
2017-10-01T12:25:36.563Z,80.54
2017-10-01T12:26:36.598Z,80.06
2017-10-01T12:27:36.641Z,79.68
2017-10-01T12:28:36.677Z,79.49
2017-10-01T12:29:36.714Z,79.20
2017-10-01T12:30:36.752Z,79.20
2017-10-01T12:31:36.799Z,79.29
2017-10-01T12:32:36.832Z,79.10
2017-10-01T12:33:36.867Z,79.29
2017-10-01T12:34:36.903Z,79.96
2017-10-01T12:35:36.940Z,80.11
2017-10-01T12:36:36.982Z,80.40
2017-10-01T12:37:37.020Z,81.16
2017-10-01T12:38:37.058Z,82.12
2017-10-01T12:39:37.093Z,82.22
2017-10-01T12:40:37.133Z,82.41
2017-10-01T12:41:37.174Z,81.93
2017-10-01T12:42:37.212Z,81.74
2017-10-01T12:43:37.254Z,82.41
2017-10-01T12:44:37.290Z,82.22
2017-10-01T12:45:37.325Z,82.41
2017-10-01T12:46:37.364Z,83.17
2017-10-01T12:47:37.402Z,82.79
2017-10-01T12:48:37.442Z,82.70
2017-10-01T12:49:37.486Z,82.98
2017-10-01T12:50:37.528Z,83.90
2017-10-01T12:51:37.562Z,84.47
2017-10-01T12:52:37.598Z,85.52